sensor_id;sensor_type;location;lat;lon;timestamp;P1;durP1;ratioP1;P2;durP2;ratioP2
5460;SDS011;2753;49.196;8.286;2022-08-19T00:00:14;26.90;;;20.80;;
5460;SDS011;2753;49.196;8.286;2022-08-19T00:02:41;26.20;;;20.73;;
5460;SDS011;2753;49.196;8.286;2022-08-19T00:05:08;29.40;;;20.43;;
5460;SDS011;2753;49.196;8.286;2022-08-19T00:07:34;27.73;;;20.57;;
5460;SDS011;2753;49.196;8.286;2022-08-19T00:10:00;22.80;;;19.00;;
5460;SDS011;2753;49.196;8.286;2022-08-19T00:12:26;27.50;;;20.93;;
5460;SDS011;2753;49.196;8.286;2022-08-19T00:14:52;25.53;;;20.50;;
5460;SDS011;2753;49.196;8.286;2022-08-19T00:17:19;25.17;;;19.87;;
5460;SDS011;2753;49.196;8.286;2022-08-19T00:19:45;25.03;;;20.93;;
5460;SDS011;2753;49.196;8.286;2022-08-19T00:22:11;24.03;;;20.87;;
5460;SDS011;2753;49.196;8.286;2022-08-19T00:24:36;30.43;;;20.90;;
5460;SDS011;2753;49.196;8.286;2022-08-19T00:27:03;24.77;;;20.70;;
5460;SDS011;2753;49.196;8.286;2022-08-19T00:29:30;29.57;;;22.17;;
5460;SDS011;2753;49.196;8.286;2022-08-19T00:31:56;28.07;;;22.67;;
5460;SDS011;2753;49.196;8.286;2022-08-19T00:34:24;27.60;;;21.30;;
5460;SDS011;2753;49.196;8.286;2022-08-19T00:36:52;27.10;;;21.43;;
5460;SDS011;2753;49.196;8.286;2022-08-19T00:39:18;30.10;;;22.53;;
5460;SDS011;2753;49.196;8.286;2022-08-19T00:41:44;27.90;;;21.30;;
5460;SDS011;2753;49.196;8.286;2022-08-19T00:44:15;31.80;;;22.70;;
5460;SDS011;2753;49.196;8.286;2022-08-19T00:46:52;31.23;;;21.87;;
5460;SDS011;2753;49.196;8.286;2022-08-19T00:49:22;27.43;;;21.30;;
5460;SDS011;2753;49.196;8.286;2022-08-19T00:52:00;27.83;;;21.47;;
5460;SDS011;2753;49.196;8.286;2022-08-19T00:54:33;30.30;;;21.80;;
5460;SDS011;2753;49.196;8.286;2022-08-19T00:57:02;26.97;;;21.40;;
5460;SDS011;2753;49.196;8.286;2022-08-19T00:59:32;27.07;;;21.03;;
5460;SDS011;2753;49.196;8.286;2022-08-19T01:02:02;28.90;;;20.73;;
5460;SDS011;2753;49.196;8.286;2022-08-19T01:04:28;26.20;;;21.70;;
5460;SDS011;2753;49.196;8.286;2022-08-19T01:06:55;32.40;;;21.90;;
5460;SDS011;2753;49.196;8.286;2022-08-19T01:09:21;32.17;;;22.93;;
5460;SDS011;2753;49.196;8.286;2022-08-19T01:11:47;31.83;;;22.00;;
5460;SDS011;2753;49.196;8.286;2022-08-19T01:14:13;27.53;;;21.67;;
5460;SDS011;2753;49.196;8.286;2022-08-19T01:16:41;31.23;;;22.30;;
5460;SDS011;2753;49.196;8.286;2022-08-19T01:19:20;30.93;;;23.33;;
5460;SDS011;2753;49.196;8.286;2022-08-19T01:22:28;25.90;;;21.83;;
5460;SDS011;2753;49.196;8.286;2022-08-19T01:24:48;26.60;;;21.07;;
5460;SDS011;2753;49.196;8.286;2022-08-19T01:27:14;27.40;;;21.53;;
5460;SDS011;2753;49.196;8.286;2022-08-19T01:29:40;31.00;;;22.03;;
5460;SDS011;2753;49.196;8.286;2022-08-19T01:32:07;26.60;;;21.43;;
5460;SDS011;2753;49.196;8.286;2022-08-19T01:34:36;28.13;;;22.53;;
5460;SDS011;2753;49.196;8.286;2022-08-19T01:37:06;30.70;;;20.83;;
5460;SDS011;2753;49.196;8.286;2022-08-19T01:39:37;30.10;;;22.13;;
5460;SDS011;2753;49.196;8.286;2022-08-19T01:42:05;29.27;;;21.57;;
5460;SDS011;2753;49.196;8.286;2022-08-19T01:44:32;29.53;;;22.00;;
5460;SDS011;2753;49.196;8.286;2022-08-19T01:46:58;31.80;;;21.80;;
5460;SDS011;2753;49.196;8.286;2022-08-19T01:49:24;30.00;;;21.10;;
5460;SDS011;2753;49.196;8.286;2022-08-19T01:51:51;28.47;;;22.37;;
5460;SDS011;2753;49.196;8.286;2022-08-19T01:54:18;25.27;;;21.13;;
5460;SDS011;2753;49.196;8.286;2022-08-19T01:56:46;30.83;;;22.77;;
5460;SDS011;2753;49.196;8.286;2022-08-19T01:59:14;33.90;;;23.90;;
5460;SDS011;2753;49.196;8.286;2022-08-19T02:01:44;30.40;;;23.53;;
5460;SDS011;2753;49.196;8.286;2022-08-19T02:04:10;26.40;;;22.40;;
5460;SDS011;2753;49.196;8.286;2022-08-19T02:06:35;29.00;;;21.00;;
5460;SDS011;2753;49.196;8.286;2022-08-19T02:09:02;26.90;;;20.30;;
5460;SDS011;2753;49.196;8.286;2022-08-19T02:11:30;27.00;;;21.37;;
5460;SDS011;2753;49.196;8.286;2022-08-19T02:13:58;31.80;;;21.10;;
5460;SDS011;2753;49.196;8.286;2022-08-19T02:16:30;31.10;;;23.80;;
5460;SDS011;2753;49.196;8.286;2022-08-19T02:18:57;28.90;;;22.10;;
5460;SDS011;2753;49.196;8.286;2022-08-19T02:21:27;27.70;;;22.83;;
5460;SDS011;2753;49.196;8.286;2022-08-19T02:23:53;29.07;;;21.57;;
5460;SDS011;2753;49.196;8.286;2022-08-19T02:26:20;30.93;;;21.03;;
5460;SDS011;2753;49.196;8.286;2022-08-19T02:28:46;25.63;;;21.70;;
5460;SDS011;2753;49.196;8.286;2022-08-19T02:31:14;26.87;;;21.03;;
5460;SDS011;2753;49.196;8.286;2022-08-19T02:33:41;24.40;;;21.70;;
5460;SDS011;2753;49.196;8.286;2022-08-19T02:36:08;24.97;;;19.80;;
5460;SDS011;2753;49.196;8.286;2022-08-19T02:38:35;27.10;;;21.10;;
5460;SDS011;2753;49.196;8.286;2022-08-19T02:41:04;22.40;;;19.47;;
5460;SDS011;2753;49.196;8.286;2022-08-19T02:43:32;25.73;;;21.03;;
5460;SDS011;2753;49.196;8.286;2022-08-19T02:46:01;26.57;;;21.03;;
5460;SDS011;2753;49.196;8.286;2022-08-19T02:48:36;22.57;;;20.17;;
5460;SDS011;2753;49.196;8.286;2022-08-19T02:51:02;31.70;;;22.90;;
5460;SDS011;2753;49.196;8.286;2022-08-19T02:53:29;37.37;;;22.20;;
5460;SDS011;2753;49.196;8.286;2022-08-19T02:55:54;28.57;;;22.00;;
5460;SDS011;2753;49.196;8.286;2022-08-19T02:58:20;26.93;;;22.50;;
5460;SDS011;2753;49.196;8.286;2022-08-19T03:00:51;27.13;;;22.53;;
5460;SDS011;2753;49.196;8.286;2022-08-19T03:03:18;29.97;;;22.53;;
5460;SDS011;2753;49.196;8.286;2022-08-19T03:05:45;32.13;;;22.80;;
5460;SDS011;2753;49.196;8.286;2022-08-19T03:08:12;25.20;;;22.07;;
5460;SDS011;2753;49.196;8.286;2022-08-19T03:10:44;30.70;;;21.90;;
5460;SDS011;2753;49.196;8.286;2022-08-19T03:13:15;27.03;;;21.60;;
5460;SDS011;2753;49.196;8.286;2022-08-19T03:15:42;26.17;;;20.50;;
5460;SDS011;2753;49.196;8.286;2022-08-19T03:18:11;24.57;;;21.87;;
5460;SDS011;2753;49.196;8.286;2022-08-19T03:20:55;28.37;;;22.90;;
5460;SDS011;2753;49.196;8.286;2022-08-19T03:23:21;31.20;;;23.20;;
5460;SDS011;2753;49.196;8.286;2022-08-19T03:25:49;32.10;;;23.77;;
5460;SDS011;2753;49.196;8.286;2022-08-19T03:28:16;29.67;;;23.00;;
5460;SDS011;2753;49.196;8.286;2022-08-19T03:30:42;28.00;;;22.03;;
5460;SDS011;2753;49.196;8.286;2022-08-19T03:33:21;31.13;;;24.03;;
5460;SDS011;2753;49.196;8.286;2022-08-19T03:35:58;29.30;;;22.83;;
5460;SDS011;2753;49.196;8.286;2022-08-19T03:38:55;26.53;;;22.07;;
5460;SDS011;2753;49.196;8.286;2022-08-19T03:41:23;31.13;;;22.93;;
5460;SDS011;2753;49.196;8.286;2022-08-19T03:43:52;26.67;;;22.97;;
5460;SDS011;2753;49.196;8.286;2022-08-19T03:46:20;30.30;;;22.07;;
5460;SDS011;2753;49.196;8.286;2022-08-19T03:48:50;29.60;;;22.43;;
5460;SDS011;2753;49.196;8.286;2022-08-19T03:51:22;30.10;;;21.63;;
5460;SDS011;2753;49.196;8.286;2022-08-19T03:53:53;28.80;;;22.03;;
5460;SDS011;2753;49.196;8.286;2022-08-19T03:56:20;27.30;;;23.17;;
5460;SDS011;2753;49.196;8.286;2022-08-19T03:58:47;30.83;;;21.90;;
5460;SDS011;2753;49.196;8.286;2022-08-19T04:01:14;25.47;;;20.57;;
5460;SDS011;2753;49.196;8.286;2022-08-19T04:03:42;23.60;;;19.63;;
5460;SDS011;2753;49.196;8.286;2022-08-19T04:08:42;24.90;;;18.77;;
5460;SDS011;2753;49.196;8.286;2022-08-19T04:11:11;25.90;;;20.83;;
5460;SDS011;2753;49.196;8.286;2022-08-19T04:13:38;29.87;;;21.83;;
5460;SDS011;2753;49.196;8.286;2022-08-19T04:16:05;27.17;;;21.07;;
5460;SDS011;2753;49.196;8.286;2022-08-19T04:18:32;25.17;;;21.53;;
5460;SDS011;2753;49.196;8.286;2022-08-19T04:20:58;27.67;;;21.63;;
5460;SDS011;2753;49.196;8.286;2022-08-19T04:23:25;27.70;;;23.20;;
5460;SDS011;2753;49.196;8.286;2022-08-19T04:25:52;23.90;;;20.87;;
5460;SDS011;2753;49.196;8.286;2022-08-19T04:28:17;25.03;;;22.03;;
5460;SDS011;2753;49.196;8.286;2022-08-19T04:30:45;24.23;;;21.33;;
5460;SDS011;2753;49.196;8.286;2022-08-19T04:33:12;25.10;;;20.53;;
5460;SDS011;2753;49.196;8.286;2022-08-19T04:35:41;28.10;;;23.00;;
5460;SDS011;2753;49.196;8.286;2022-08-19T04:38:10;26.13;;;21.03;;
5460;SDS011;2753;49.196;8.286;2022-08-19T04:40:40;26.20;;;20.43;;
5460;SDS011;2753;49.196;8.286;2022-08-19T04:43:25;31.07;;;20.87;;
5460;SDS011;2753;49.196;8.286;2022-08-19T04:45:51;25.73;;;19.33;;
5460;SDS011;2753;49.196;8.286;2022-08-19T04:48:17;26.43;;;19.83;;
5460;SDS011;2753;49.196;8.286;2022-08-19T04:50:47;23.43;;;20.53;;
5460;SDS011;2753;49.196;8.286;2022-08-19T04:53:13;25.90;;;20.63;;
5460;SDS011;2753;49.196;8.286;2022-08-19T04:55:40;25.53;;;22.10;;
5460;SDS011;2753;49.196;8.286;2022-08-19T04:58:07;23.63;;;20.33;;
5460;SDS011;2753;49.196;8.286;2022-08-19T05:00:32;27.10;;;20.00;;
5460;SDS011;2753;49.196;8.286;2022-08-19T05:02:58;26.87;;;21.87;;
5460;SDS011;2753;49.196;8.286;2022-08-19T05:05:24;33.97;;;20.23;;
5460;SDS011;2753;49.196;8.286;2022-08-19T05:07:49;26.83;;;20.37;;
5460;SDS011;2753;49.196;8.286;2022-08-19T05:10:15;23.33;;;20.00;;
5460;SDS011;2753;49.196;8.286;2022-08-19T05:12:41;22.77;;;18.50;;
5460;SDS011;2753;49.196;8.286;2022-08-19T05:15:06;28.47;;;18.97;;
5460;SDS011;2753;49.196;8.286;2022-08-19T05:17:33;24.27;;;19.93;;
5460;SDS011;2753;49.196;8.286;2022-08-19T05:19:59;25.37;;;20.20;;
5460;SDS011;2753;49.196;8.286;2022-08-19T05:22:45;22.90;;;19.00;;
5460;SDS011;2753;49.196;8.286;2022-08-19T05:25:12;24.30;;;20.00;;
5460;SDS011;2753;49.196;8.286;2022-08-19T05:27:43;27.33;;;18.93;;
5460;SDS011;2753;49.196;8.286;2022-08-19T05:30:09;21.47;;;18.30;;
5460;SDS011;2753;49.196;8.286;2022-08-19T05:32:36;19.80;;;17.33;;
5460;SDS011;2753;49.196;8.286;2022-08-19T05:35:02;23.10;;;17.40;;
5460;SDS011;2753;49.196;8.286;2022-08-19T05:37:29;24.43;;;17.73;;
5460;SDS011;2753;49.196;8.286;2022-08-19T05:39:54;23.00;;;18.83;;
5460;SDS011;2753;49.196;8.286;2022-08-19T05:42:20;21.57;;;17.83;;
5460;SDS011;2753;49.196;8.286;2022-08-19T05:44:47;18.50;;;16.37;;
5460;SDS011;2753;49.196;8.286;2022-08-19T05:47:14;18.30;;;16.40;;
5460;SDS011;2753;49.196;8.286;2022-08-19T05:49:40;22.20;;;16.60;;
5460;SDS011;2753;49.196;8.286;2022-08-19T05:52:07;18.80;;;16.23;;
5460;SDS011;2753;49.196;8.286;2022-08-19T05:54:39;19.77;;;15.83;;
5460;SDS011;2753;49.196;8.286;2022-08-19T05:57:06;17.03;;;15.20;;
5460;SDS011;2753;49.196;8.286;2022-08-19T05:59:33;18.83;;;15.53;;
5460;SDS011;2753;49.196;8.286;2022-08-19T06:02:00;23.97;;;15.87;;
5460;SDS011;2753;49.196;8.286;2022-08-19T06:04:27;18.00;;;14.90;;
5460;SDS011;2753;49.196;8.286;2022-08-19T06:06:53;21.00;;;15.67;;
5460;SDS011;2753;49.196;8.286;2022-08-19T06:09:21;15.90;;;14.37;;
5460;SDS011;2753;49.196;8.286;2022-08-19T06:11:49;18.30;;;15.20;;
5460;SDS011;2753;49.196;8.286;2022-08-19T06:14:20;16.47;;;14.87;;
5460;SDS011;2753;49.196;8.286;2022-08-19T06:16:49;18.17;;;16.27;;
5460;SDS011;2753;49.196;8.286;2022-08-19T06:19:19;18.13;;;16.20;;
5460;SDS011;2753;49.196;8.286;2022-08-19T06:21:47;22.70;;;15.77;;
5460;SDS011;2753;49.196;8.286;2022-08-19T06:24:16;22.37;;;15.70;;
5460;SDS011;2753;49.196;8.286;2022-08-19T06:26:44;22.47;;;15.17;;
5460;SDS011;2753;49.196;8.286;2022-08-19T06:29:12;21.50;;;15.47;;
5460;SDS011;2753;49.196;8.286;2022-08-19T06:31:43;16.83;;;14.80;;
5460;SDS011;2753;49.196;8.286;2022-08-19T06:34:16;24.20;;;14.60;;
5460;SDS011;2753;49.196;8.286;2022-08-19T06:36:50;21.07;;;15.30;;
5460;SDS011;2753;49.196;8.286;2022-08-19T06:39:17;15.83;;;13.50;;
5460;SDS011;2753;49.196;8.286;2022-08-19T06:41:49;16.77;;;14.03;;
5460;SDS011;2753;49.196;8.286;2022-08-19T06:44:18;17.03;;;14.20;;
5460;SDS011;2753;49.196;8.286;2022-08-19T06:46:45;14.97;;;13.07;;
5460;SDS011;2753;49.196;8.286;2022-08-19T06:49:11;18.43;;;14.07;;
5460;SDS011;2753;49.196;8.286;2022-08-19T06:51:39;20.10;;;14.17;;
5460;SDS011;2753;49.196;8.286;2022-08-19T06:54:10;24.50;;;14.97;;
5460;SDS011;2753;49.196;8.286;2022-08-19T06:56:35;19.70;;;13.90;;
5460;SDS011;2753;49.196;8.286;2022-08-19T06:59:09;14.90;;;13.37;;
5460;SDS011;2753;49.196;8.286;2022-08-19T07:01:37;14.03;;;12.73;;
5460;SDS011;2753;49.196;8.286;2022-08-19T07:04:06;16.90;;;13.20;;
5460;SDS011;2753;49.196;8.286;2022-08-19T07:06:33;15.77;;;12.80;;
5460;SDS011;2753;49.196;8.286;2022-08-19T07:09:00;16.80;;;13.50;;
5460;SDS011;2753;49.196;8.286;2022-08-19T07:11:25;14.83;;;13.37;;
5460;SDS011;2753;49.196;8.286;2022-08-19T07:13:52;14.87;;;13.03;;
5460;SDS011;2753;49.196;8.286;2022-08-19T07:16:18;14.73;;;13.17;;
5460;SDS011;2753;49.196;8.286;2022-08-19T07:18:48;15.63;;;12.10;;
5460;SDS011;2753;49.196;8.286;2022-08-19T07:21:17;13.10;;;11.90;;
5460;SDS011;2753;49.196;8.286;2022-08-19T07:23:49;17.20;;;12.63;;
5460;SDS011;2753;49.196;8.286;2022-08-19T07:26:23;16.63;;;12.60;;
5460;SDS011;2753;49.196;8.286;2022-08-19T07:28:49;15.90;;;12.80;;
5460;SDS011;2753;49.196;8.286;2022-08-19T07:31:17;16.70;;;13.00;;
5460;SDS011;2753;49.196;8.286;2022-08-19T07:33:45;15.47;;;12.33;;
5460;SDS011;2753;49.196;8.286;2022-08-19T07:36:13;12.83;;;11.47;;
5460;SDS011;2753;49.196;8.286;2022-08-19T07:38:41;19.03;;;12.73;;
5460;SDS011;2753;49.196;8.286;2022-08-19T07:41:12;17.77;;;13.20;;
5460;SDS011;2753;49.196;8.286;2022-08-19T07:43:40;18.27;;;11.47;;
5460;SDS011;2753;49.196;8.286;2022-08-19T07:46:06;19.53;;;12.00;;
5460;SDS011;2753;49.196;8.286;2022-08-19T07:48:32;14.20;;;11.87;;
5460;SDS011;2753;49.196;8.286;2022-08-19T07:50:59;16.50;;;12.40;;
5460;SDS011;2753;49.196;8.286;2022-08-19T07:53:29;12.10;;;10.80;;
5460;SDS011;2753;49.196;8.286;2022-08-19T07:55:56;14.17;;;10.80;;
5460;SDS011;2753;49.196;8.286;2022-08-19T07:58:28;14.80;;;10.63;;
5460;SDS011;2753;49.196;8.286;2022-08-19T08:00:59;17.20;;;11.20;;
5460;SDS011;2753;49.196;8.286;2022-08-19T08:03:25;18.00;;;11.00;;
5460;SDS011;2753;49.196;8.286;2022-08-19T08:06:11;12.73;;;9.83;;
5460;SDS011;2753;49.196;8.286;2022-08-19T08:08:56;13.43;;;10.20;;
5460;SDS011;2753;49.196;8.286;2022-08-19T08:11:42;11.77;;;10.67;;
5460;SDS011;2753;49.196;8.286;2022-08-19T08:14:13;15.23;;;9.70;;
5460;SDS011;2753;49.196;8.286;2022-08-19T08:16:44;19.43;;;10.30;;
5460;SDS011;2753;49.196;8.286;2022-08-19T08:19:11;12.00;;;10.13;;
5460;SDS011;2753;49.196;8.286;2022-08-19T08:21:39;12.00;;;10.77;;
5460;SDS011;2753;49.196;8.286;2022-08-19T08:24:06;12.47;;;11.00;;
5460;SDS011;2753;49.196;8.286;2022-08-19T08:26:32;10.30;;;9.20;;
5460;SDS011;2753;49.196;8.286;2022-08-19T08:28:57;14.03;;;9.67;;
5460;SDS011;2753;49.196;8.286;2022-08-19T08:31:23;18.60;;;11.37;;
5460;SDS011;2753;49.196;8.286;2022-08-19T08:33:49;14.83;;;11.90;;
5460;SDS011;2753;49.196;8.286;2022-08-19T08:36:14;12.90;;;9.50;;
5460;SDS011;2753;49.196;8.286;2022-08-19T08:38:41;11.63;;;10.43;;
5460;SDS011;2753;49.196;8.286;2022-08-19T08:41:26;15.00;;;10.80;;
5460;SDS011;2753;49.196;8.286;2022-08-19T08:44:02;15.10;;;9.73;;
5460;SDS011;2753;49.196;8.286;2022-08-19T08:46:39;13.43;;;9.40;;
5460;SDS011;2753;49.196;8.286;2022-08-19T08:51:52;13.43;;;9.33;;
5460;SDS011;2753;49.196;8.286;2022-08-19T08:54:27;12.47;;;9.23;;
5460;SDS011;2753;49.196;8.286;2022-08-19T08:57:02;10.27;;;8.80;;
5460;SDS011;2753;49.196;8.286;2022-08-19T08:59:34;10.00;;;8.93;;
5460;SDS011;2753;49.196;8.286;2022-08-19T09:02:02;17.00;;;8.93;;
5460;SDS011;2753;49.196;8.286;2022-08-19T09:04:28;9.53;;;8.53;;
5460;SDS011;2753;49.196;8.286;2022-08-19T09:09:38;9.03;;;8.13;;
5460;SDS011;2753;49.196;8.286;2022-08-19T09:12:10;14.57;;;10.80;;
5460;SDS011;2753;49.196;8.286;2022-08-19T09:14:58;12.47;;;9.40;;
5460;SDS011;2753;49.196;8.286;2022-08-19T09:17:29;12.20;;;8.13;;
5460;SDS011;2753;49.196;8.286;2022-08-19T09:20:04;9.53;;;8.53;;
5460;SDS011;2753;49.196;8.286;2022-08-19T09:22:34;9.37;;;8.37;;
5460;SDS011;2753;49.196;8.286;2022-08-19T09:25:05;11.53;;;7.57;;
5460;SDS011;2753;49.196;8.286;2022-08-19T09:27:33;9.63;;;8.20;;
5460;SDS011;2753;49.196;8.286;2022-08-19T09:30:02;16.03;;;10.80;;
5460;SDS011;2753;49.196;8.286;2022-08-19T09:32:29;12.77;;;9.70;;
5460;SDS011;2753;49.196;8.286;2022-08-19T09:34:55;11.73;;;7.97;;
5460;SDS011;2753;49.196;8.286;2022-08-19T09:37:23;22.83;;;8.20;;
5460;SDS011;2753;49.196;8.286;2022-08-19T09:39:49;10.33;;;7.67;;
5460;SDS011;2753;49.196;8.286;2022-08-19T09:42:15;12.00;;;8.10;;
5460;SDS011;2753;49.196;8.286;2022-08-19T09:44:41;9.17;;;8.00;;
5460;SDS011;2753;49.196;8.286;2022-08-19T09:47:09;14.07;;;7.40;;
5460;SDS011;2753;49.196;8.286;2022-08-19T09:49:36;9.77;;;8.20;;
5460;SDS011;2753;49.196;8.286;2022-08-19T09:52:04;14.20;;;8.07;;
5460;SDS011;2753;49.196;8.286;2022-08-19T09:54:30;9.73;;;8.60;;
5460;SDS011;2753;49.196;8.286;2022-08-19T09:56:57;9.43;;;7.40;;
5460;SDS011;2753;49.196;8.286;2022-08-19T09:59:25;19.63;;;8.53;;
5460;SDS011;2753;49.196;8.286;2022-08-19T10:01:51;11.80;;;9.07;;
5460;SDS011;2753;49.196;8.286;2022-08-19T10:04:17;10.40;;;8.30;;
5460;SDS011;2753;49.196;8.286;2022-08-19T10:06:44;10.33;;;8.50;;
5460;SDS011;2753;49.196;8.286;2022-08-19T10:09:13;9.50;;;8.70;;
5460;SDS011;2753;49.196;8.286;2022-08-19T10:11:40;10.63;;;7.87;;
5460;SDS011;2753;49.196;8.286;2022-08-19T10:14:07;10.40;;;7.50;;
5460;SDS011;2753;49.196;8.286;2022-08-19T10:16:33;8.30;;;7.50;;
5460;SDS011;2753;49.196;8.286;2022-08-19T10:19:01;10.83;;;9.17;;
5460;SDS011;2753;49.196;8.286;2022-08-19T10:21:29;13.40;;;6.53;;
5460;SDS011;2753;49.196;8.286;2022-08-19T10:23:57;7.97;;;6.90;;
5460;SDS011;2753;49.196;8.286;2022-08-19T10:26:29;8.00;;;7.20;;
5460;SDS011;2753;49.196;8.286;2022-08-19T10:28:57;9.73;;;8.00;;
5460;SDS011;2753;49.196;8.286;2022-08-19T10:31:24;12.93;;;7.70;;
5460;SDS011;2753;49.196;8.286;2022-08-19T10:33:52;11.37;;;8.53;;
5460;SDS011;2753;49.196;8.286;2022-08-19T10:36:24;8.23;;;6.47;;
5460;SDS011;2753;49.196;8.286;2022-08-19T10:39:01;10.03;;;6.30;;
5460;SDS011;2753;49.196;8.286;2022-08-19T10:41:34;10.87;;;6.70;;
5460;SDS011;2753;49.196;8.286;2022-08-19T10:44:03;7.23;;;6.53;;
5460;SDS011;2753;49.196;8.286;2022-08-19T10:46:32;10.63;;;7.60;;
5460;SDS011;2753;49.196;8.286;2022-08-19T10:49:01;9.13;;;7.07;;
5460;SDS011;2753;49.196;8.286;2022-08-19T10:51:28;9.13;;;6.97;;
5460;SDS011;2753;49.196;8.286;2022-08-19T10:54:13;7.90;;;7.20;;
5460;SDS011;2753;49.196;8.286;2022-08-19T10:56:40;14.67;;;7.10;;
5460;SDS011;2753;49.196;8.286;2022-08-19T10:59:19;6.57;;;6.03;;
5460;SDS011;2753;49.196;8.286;2022-08-19T11:01:52;9.90;;;6.23;;
5460;SDS011;2753;49.196;8.286;2022-08-19T11:04:20;10.47;;;6.77;;
5460;SDS011;2753;49.196;8.286;2022-08-19T11:06:47;9.47;;;6.93;;
5460;SDS011;2753;49.196;8.286;2022-08-19T11:09:14;9.80;;;6.87;;
5460;SDS011;2753;49.196;8.286;2022-08-19T11:11:45;8.80;;;7.50;;
5460;SDS011;2753;49.196;8.286;2022-08-19T11:14:13;9.17;;;6.80;;
5460;SDS011;2753;49.196;8.286;2022-08-19T11:16:41;8.17;;;7.33;;
5460;SDS011;2753;49.196;8.286;2022-08-19T11:19:08;9.37;;;7.37;;
5460;SDS011;2753;49.196;8.286;2022-08-19T11:21:37;7.63;;;6.47;;
5460;SDS011;2753;49.196;8.286;2022-08-19T11:24:05;10.47;;;7.23;;
5460;SDS011;2753;49.196;8.286;2022-08-19T11:26:34;9.47;;;6.63;;
5460;SDS011;2753;49.196;8.286;2022-08-19T11:29:01;7.77;;;6.80;;
5460;SDS011;2753;49.196;8.286;2022-08-19T11:31:28;9.60;;;6.30;;
5460;SDS011;2753;49.196;8.286;2022-08-19T11:33:56;10.67;;;7.67;;
5460;SDS011;2753;49.196;8.286;2022-08-19T11:36:25;7.97;;;7.17;;
5460;SDS011;2753;49.196;8.286;2022-08-19T11:38:51;7.57;;;6.87;;
5460;SDS011;2753;49.196;8.286;2022-08-19T11:41:18;11.30;;;7.10;;
5460;SDS011;2753;49.196;8.286;2022-08-19T11:43:45;9.70;;;6.53;;
5460;SDS011;2753;49.196;8.286;2022-08-19T11:46:12;16.63;;;7.10;;
5460;SDS011;2753;49.196;8.286;2022-08-19T11:48:39;7.53;;;6.80;;
5460;SDS011;2753;49.196;8.286;2022-08-19T11:51:09;8.00;;;6.90;;
5460;SDS011;2753;49.196;8.286;2022-08-19T11:53:37;6.83;;;6.23;;
5460;SDS011;2753;49.196;8.286;2022-08-19T11:56:06;7.40;;;6.60;;
5460;SDS011;2753;49.196;8.286;2022-08-19T11:58:33;15.77;;;7.60;;
5460;SDS011;2753;49.196;8.286;2022-08-19T12:00:59;9.03;;;7.77;;
5460;SDS011;2753;49.196;8.286;2022-08-19T12:03:25;7.40;;;6.90;;
5460;SDS011;2753;49.196;8.286;2022-08-19T12:05:51;7.27;;;6.60;;
5460;SDS011;2753;49.196;8.286;2022-08-19T12:08:17;7.50;;;6.70;;
5460;SDS011;2753;49.196;8.286;2022-08-19T12:10:43;6.97;;;6.37;;
5460;SDS011;2753;49.196;8.286;2022-08-19T12:13:10;7.73;;;6.27;;
5460;SDS011;2753;49.196;8.286;2022-08-19T12:15:39;7.10;;;6.60;;
5460;SDS011;2753;49.196;8.286;2022-08-19T12:18:07;10.77;;;7.37;;
5460;SDS011;2753;49.196;8.286;2022-08-19T12:20:34;8.73;;;7.70;;
5460;SDS011;2753;49.196;8.286;2022-08-19T12:23:01;8.57;;;7.53;;
5460;SDS011;2753;49.196;8.286;2022-08-19T12:25:28;8.07;;;7.33;;
5460;SDS011;2753;49.196;8.286;2022-08-19T12:27:53;11.23;;;6.80;;
5460;SDS011;2753;49.196;8.286;2022-08-19T12:30:20;7.20;;;6.70;;
5460;SDS011;2753;49.196;8.286;2022-08-19T12:32:45;7.83;;;7.13;;
5460;SDS011;2753;49.196;8.286;2022-08-19T12:35:11;6.37;;;5.20;;
5460;SDS011;2753;49.196;8.286;2022-08-19T12:37:37;6.63;;;5.93;;
5460;SDS011;2753;49.196;8.286;2022-08-19T12:40:04;5.07;;;4.63;;
5460;SDS011;2753;49.196;8.286;2022-08-19T12:42:30;8.83;;;3.90;;
5460;SDS011;2753;49.196;8.286;2022-08-19T12:44:55;3.63;;;3.37;;
5460;SDS011;2753;49.196;8.286;2022-08-19T12:47:21;4.30;;;4.00;;
5460;SDS011;2753;49.196;8.286;2022-08-19T12:49:47;4.67;;;4.33;;
5460;SDS011;2753;49.196;8.286;2022-08-19T12:52:13;4.93;;;4.53;;
5460;SDS011;2753;49.196;8.286;2022-08-19T12:54:40;4.13;;;3.83;;
5460;SDS011;2753;49.196;8.286;2022-08-19T12:57:07;4.47;;;4.10;;
5460;SDS011;2753;49.196;8.286;2022-08-19T12:59:34;9.40;;;4.17;;
5460;SDS011;2753;49.196;8.286;2022-08-19T13:02:01;4.97;;;4.57;;
5460;SDS011;2753;49.196;8.286;2022-08-19T13:04:29;4.60;;;4.27;;
5460;SDS011;2753;49.196;8.286;2022-08-19T13:06:55;3.90;;;3.57;;
5460;SDS011;2753;49.196;8.286;2022-08-19T13:09:21;3.40;;;3.20;;
5460;SDS011;2753;49.196;8.286;2022-08-19T13:11:47;3.20;;;3.00;;
5460;SDS011;2753;49.196;8.286;2022-08-19T13:14:15;3.50;;;3.20;;
5460;SDS011;2753;49.196;8.286;2022-08-19T13:16:41;6.67;;;3.40;;
5460;SDS011;2753;49.196;8.286;2022-08-19T13:19:08;5.47;;;3.60;;
5460;SDS011;2753;49.196;8.286;2022-08-19T13:21:33;3.00;;;2.90;;
5460;SDS011;2753;49.196;8.286;2022-08-19T13:23:59;3.40;;;3.07;;
5460;SDS011;2753;49.196;8.286;2022-08-19T13:26:25;5.37;;;3.20;;
5460;SDS011;2753;49.196;8.286;2022-08-19T13:28:50;4.47;;;3.40;;
5460;SDS011;2753;49.196;8.286;2022-08-19T13:31:35;3.20;;;3.00;;
5460;SDS011;2753;49.196;8.286;2022-08-19T13:34:32;3.40;;;3.10;;
5460;SDS011;2753;49.196;8.286;2022-08-19T13:37:00;7.93;;;4.10;;
5460;SDS011;2753;49.196;8.286;2022-08-19T13:39:28;4.20;;;3.90;;
5460;SDS011;2753;49.196;8.286;2022-08-19T13:41:55;5.13;;;3.90;;
5460;SDS011;2753;49.196;8.286;2022-08-19T13:44:21;4.37;;;3.97;;
5460;SDS011;2753;49.196;8.286;2022-08-19T13:46:47;5.10;;;3.83;;
5460;SDS011;2753;49.196;8.286;2022-08-19T13:49:16;4.30;;;4.00;;
5460;SDS011;2753;49.196;8.286;2022-08-19T13:51:42;10.50;;;4.13;;
5460;SDS011;2753;49.196;8.286;2022-08-19T13:54:09;5.47;;;4.00;;
5460;SDS011;2753;49.196;8.286;2022-08-19T13:56:39;5.70;;;3.43;;
5460;SDS011;2753;49.196;8.286;2022-08-19T13:59:06;3.60;;;3.40;;
5460;SDS011;2753;49.196;8.286;2022-08-19T14:01:32;4.03;;;3.67;;
5460;SDS011;2753;49.196;8.286;2022-08-19T14:03:58;7.53;;;3.30;;
5460;SDS011;2753;49.196;8.286;2022-08-19T14:06:24;4.83;;;3.83;;
5460;SDS011;2753;49.196;8.286;2022-08-19T14:08:50;11.20;;;3.90;;
5460;SDS011;2753;49.196;8.286;2022-08-19T14:11:16;7.57;;;4.20;;
5460;SDS011;2753;49.196;8.286;2022-08-19T14:13:42;4.27;;;3.93;;
5460;SDS011;2753;49.196;8.286;2022-08-19T14:16:12;4.30;;;3.87;;
5460;SDS011;2753;49.196;8.286;2022-08-19T14:18:38;4.33;;;4.03;;
5460;SDS011;2753;49.196;8.286;2022-08-19T14:21:04;3.83;;;3.03;;
5460;SDS011;2753;49.196;8.286;2022-08-19T14:23:31;4.07;;;3.87;;
5460;SDS011;2753;49.196;8.286;2022-08-19T14:26:08;4.93;;;4.10;;
5460;SDS011;2753;49.196;8.286;2022-08-19T14:28:37;4.90;;;3.40;;
5460;SDS011;2753;49.196;8.286;2022-08-19T14:31:04;4.07;;;3.73;;
5460;SDS011;2753;49.196;8.286;2022-08-19T14:33:30;4.27;;;3.77;;
5460;SDS011;2753;49.196;8.286;2022-08-19T14:35:57;4.87;;;4.20;;
5460;SDS011;2753;49.196;8.286;2022-08-19T14:38:23;7.83;;;4.00;;
5460;SDS011;2753;49.196;8.286;2022-08-19T14:40:48;5.90;;;3.73;;
5460;SDS011;2753;49.196;8.286;2022-08-19T14:43:15;3.60;;;3.30;;
5460;SDS011;2753;49.196;8.286;2022-08-19T14:45:42;4.70;;;3.73;;
5460;SDS011;2753;49.196;8.286;2022-08-19T14:48:08;6.30;;;4.10;;
5460;SDS011;2753;49.196;8.286;2022-08-19T14:50:34;3.40;;;3.20;;
5460;SDS011;2753;49.196;8.286;2022-08-19T14:53:05;4.40;;;4.00;;
5460;SDS011;2753;49.196;8.286;2022-08-19T14:55:33;3.60;;;3.40;;
5460;SDS011;2753;49.196;8.286;2022-08-19T14:57:59;4.80;;;3.70;;
5460;SDS011;2753;49.196;8.286;2022-08-19T15:00:25;4.10;;;3.40;;
5460;SDS011;2753;49.196;8.286;2022-08-19T15:02:52;10.90;;;4.10;;
5460;SDS011;2753;49.196;8.286;2022-08-19T15:05:19;3.97;;;3.77;;
5460;SDS011;2753;49.196;8.286;2022-08-19T15:07:45;4.50;;;4.00;;
5460;SDS011;2753;49.196;8.286;2022-08-19T15:10:12;4.93;;;4.40;;
5460;SDS011;2753;49.196;8.286;2022-08-19T15:12:39;4.67;;;4.37;;